createdAt,value
2018-07-24T08:52:51.512Z,48.52
2018-07-24T08:55:23.197Z,48.63
2018-07-24T08:57:54.175Z,48.35
2018-07-24T09:00:25.580Z,48.41
2018-07-24T09:02:56.986Z,48.97
2018-07-24T09:05:28.328Z,48.55
2018-07-24T09:07:59.687Z,49.02
2018-07-24T09:10:31.015Z,48.87
2018-07-24T09:13:02.356Z,48.45
2018-07-24T09:15:33.751Z,47.94
2018-07-24T09:18:05.025Z,47.10
2018-07-24T09:20:37.931Z,47.29
2018-07-24T09:23:09.376Z,47.30
2018-07-24T09:25:40.767Z,47.08
2018-07-24T09:28:12.098Z,47.91
2018-07-24T09:30:43.444Z,47.14
2018-07-24T09:33:14.767Z,46.75
2018-07-24T09:35:46.113Z,46.99
2018-07-24T09:38:17.508Z,46.27
2018-07-24T09:40:49.019Z,47.28
2018-07-24T09:43:20.419Z,46.41
2018-07-24T09:45:51.820Z,46.37
2018-07-24T09:48:23.159Z,45.80
2018-07-24T09:50:54.519Z,45.71
2018-07-24T09:53:25.881Z,45.99
2018-07-24T09:55:57.480Z,45.51
2018-07-24T09:58:28.864Z,45.32
2018-07-24T10:01:05.480Z,45.36
2018-07-24T10:03:36.924Z,45.65
2018-07-24T10:06:09.000Z,45.85
2018-07-24T10:08:40.303Z,45.40
2018-07-24T10:11:11.716Z,45.47
2018-07-24T10:13:43.108Z,45.34
2018-07-24T10:16:14.470Z,44.98
2018-07-24T10:18:45.791Z,45.36
2018-07-24T10:21:17.185Z,46.35
2018-07-24T10:23:48.671Z,46.22
2018-07-24T10:26:19.984Z,45.43
2018-07-24T10:28:51.250Z,44.90
2018-07-24T10:31:22.548Z,46.02
2018-07-24T10:33:53.931Z,46.61
2018-07-24T10:36:25.369Z,46.03
2018-07-24T10:38:56.683Z,45.06
2018-07-24T10:41:28.084Z,45.20
2018-07-24T10:43:59.488Z,45.66
2018-07-24T10:46:30.880Z,46.37
2018-07-24T10:49:02.328Z,45.85
2018-07-24T10:51:33.720Z,45.26
2018-07-24T10:54:05.003Z,45.70
2018-07-24T10:56:36.400Z,45.13
2018-07-24T10:59:08.069Z,45.73
2018-07-24T11:01:39.540Z,45.54
2018-07-24T11:04:10.924Z,45.62
2018-07-24T11:06:42.359Z,45.78
2018-07-24T11:09:13.755Z,45.40
2018-07-24T11:11:45.088Z,45.94
2018-07-24T11:14:16.402Z,45.23
2018-07-24T11:16:47.796Z,45.03
2018-07-24T11:19:19.089Z,45.42
2018-07-24T11:21:50.623Z,43.92
2018-07-24T11:24:22.007Z,45.47
2018-07-24T11:26:53.467Z,45.22
2018-07-24T11:29:25.262Z,44.02
2018-07-24T11:31:56.656Z,44.39
2018-07-24T11:34:28.013Z,43.68
2018-07-24T11:36:59.449Z,45.03
2018-07-24T11:39:30.943Z,44.65
2018-07-24T11:42:02.359Z,45.12
2018-07-24T11:44:33.725Z,45.30
2018-07-24T11:47:05.096Z,45.32
2018-07-24T11:49:36.383Z,44.86
2018-07-24T11:52:07.824Z,45.19
2018-07-24T11:54:39.149Z,45.50
2018-07-24T11:57:10.556Z,45.82
2018-07-24T11:59:41.960Z,45.90
2018-07-24T12:02:13.308Z,45.13
2018-07-24T12:04:44.831Z,44.98
2018-07-24T12:07:16.816Z,44.91
2018-07-24T12:09:48.754Z,45.99
2018-07-24T12:12:20.696Z,45.75
2018-07-24T12:14:52.684Z,44.85
2018-07-24T12:17:23.960Z,45.02
2018-07-24T12:19:55.271Z,45.14
2018-07-24T12:22:26.710Z,45.21
2018-07-24T12:24:58.176Z,44.87
2018-07-24T12:27:29.633Z,45.21
2018-07-24T12:30:01.173Z,44.39
2018-07-24T13:36:37.960Z,44.18
2018-07-24T13:39:12.355Z,44.64
2018-07-24T13:41:43.640Z,45.14
2018-07-24T13:44:14.979Z,45.35
2018-07-24T13:46:46.313Z,44.80
2018-07-24T13:49:17.664Z,44.80
2018-07-24T13:51:49.121Z,44.53
2018-07-24T13:54:20.573Z,45.13
2018-07-24T13:56:52.088Z,45.30
2018-07-24T13:59:23.764Z,45.50
2018-07-24T14:01:55.862Z,44.94
2018-07-24T14:04:27.500Z,45.53
2018-07-24T14:06:58.936Z,45.40
2018-07-24T14:09:30.574Z,44.88
2018-07-24T14:12:01.832Z,44.84
2018-07-24T14:14:33.828Z,45.76
2018-07-24T14:17:05.152Z,45.46
2018-07-24T14:19:36.534Z,46.08
2018-07-24T14:22:07.908Z,45.19
2018-07-24T14:24:39.311Z,45.59
2018-07-24T14:27:10.953Z,45.76
2018-07-24T14:29:43.852Z,44.93
2018-07-24T14:32:15.295Z,45.29
2018-07-24T14:34:46.657Z,45.86
2018-07-24T14:37:18.129Z,45.03
2018-07-24T14:39:49.555Z,45.27
2018-07-24T14:42:21.098Z,45.55
2018-07-24T14:44:52.779Z,45.46
2018-07-24T14:47:24.367Z,45.53
2018-07-24T14:49:55.865Z,45.00
2018-07-24T14:52:27.291Z,44.16
2018-07-24T14:54:58.931Z,44.22
2018-07-24T14:57:31.175Z,44.63
2018-07-24T15:00:02.830Z,44.68
2018-07-24T15:02:34.247Z,45.22
2018-07-24T15:05:05.779Z,45.12
2018-07-24T15:07:37.348Z,45.01
2018-07-24T15:10:09.422Z,45.55
2018-07-24T15:12:41.035Z,45.18
2018-07-24T15:15:12.658Z,45.55
2018-07-24T15:17:44.208Z,45.29
2018-07-24T15:20:15.842Z,45.66
2018-07-24T15:22:47.116Z,45.58
2018-07-24T15:25:18.512Z,44.98
2018-07-24T15:27:49.901Z,44.97
2018-07-24T15:31:24.584Z,44.81
2018-07-24T15:33:55.857Z,45.47
2018-07-24T15:36:27.226Z,45.68
2018-07-24T15:38:58.764Z,45.22
2018-07-24T15:41:30.172Z,45.47
2018-07-24T15:44:01.509Z,45.64
2018-07-24T15:46:32.928Z,45.08
2018-07-24T15:49:04.352Z,45.41
2018-07-24T15:51:35.880Z,45.05
